createdAt,value
2022-12-08T00:00:48.082Z,5.68
2022-12-08T00:06:08.459Z,5.54
2022-12-08T00:11:13.642Z,5.64
2022-12-08T00:16:15.397Z,5.55
2022-12-08T00:21:17.349Z,5.65
2022-12-08T00:26:19.076Z,5.65
2022-12-08T00:31:20.723Z,5.67
2022-12-08T00:36:22.390Z,5.73
2022-12-08T00:41:44.397Z,5.87
2022-12-08T00:46:46.793Z,5.70
2022-12-08T00:51:48.467Z,5.78
2022-12-08T00:56:50.693Z,5.68
2022-12-08T01:01:52.996Z,5.66
2022-12-08T01:06:54.872Z,5.73
2022-12-08T01:11:56.462Z,5.65
2022-12-08T01:16:58.157Z,5.85
2022-12-08T01:21:59.802Z,5.72
2022-12-08T01:27:01.406Z,5.48
2022-12-08T01:32:03.148Z,5.66
2022-12-08T01:37:04.853Z,5.63
2022-12-08T01:42:06.596Z,5.66
2022-12-08T01:47:08.572Z,5.71
2022-12-08T01:52:29.109Z,5.74
2022-12-08T01:57:50.772Z,5.65
2022-12-08T02:02:54.426Z,5.61
2022-12-08T02:07:57.963Z,5.76
2022-12-08T02:13:01.043Z,5.89
2022-12-08T02:18:27.559Z,5.81
2022-12-08T02:23:41.034Z,5.74
2022-12-08T02:28:53.814Z,5.69
2022-12-08T02:34:16.596Z,5.37
2022-12-08T02:39:30.253Z,5.41
2022-12-08T02:44:39.581Z,5.28
2022-12-08T02:49:41.247Z,5.34
2022-12-08T02:54:47.438Z,5.43
2022-12-08T03:00:13.903Z,5.69
2022-12-08T03:05:31.499Z,5.69
2022-12-08T03:10:39.610Z,5.44
2022-12-08T03:15:44.957Z,5.46
2022-12-08T03:20:48.328Z,5.51
2022-12-08T03:26:08.983Z,5.58
2022-12-08T03:31:13.155Z,5.59
2022-12-08T03:36:15.928Z,5.61
2022-12-08T03:41:20.196Z,5.73
2022-12-08T03:51:25.090Z,6.28
2022-12-08T03:56:29.809Z,5.76
2022-12-08T04:01:31.964Z,5.65
2022-12-08T04:06:33.609Z,5.63
2022-12-08T04:11:35.317Z,5.55
2022-12-08T04:16:37.030Z,5.44
2022-12-08T04:21:38.806Z,5.68
2022-12-08T04:26:40.427Z,5.21
2022-12-08T04:31:42.262Z,5.40
2022-12-08T04:36:43.939Z,5.21
2022-12-08T04:41:45.682Z,5.18
2022-12-08T04:46:47.293Z,5.12
2022-12-08T04:51:49.022Z,5.13
2022-12-08T04:56:50.695Z,5.16
2022-12-08T05:01:52.433Z,5.11
2022-12-08T05:06:54.170Z,5.05
2022-12-08T05:11:55.895Z,4.97
2022-12-08T05:16:57.639Z,4.93
2022-12-08T05:21:59.286Z,5.12
2022-12-08T05:27:01.067Z,4.98
2022-12-08T05:32:02.866Z,4.99
2022-12-08T05:37:04.750Z,5.10
2022-12-08T05:42:06.467Z,4.98
2022-12-08T05:47:08.138Z,4.67
2022-12-08T05:52:09.761Z,4.60
2022-12-08T05:57:11.639Z,4.45
2022-12-08T06:02:13.548Z,4.21
2022-12-08T06:07:16.283Z,4.39
2022-12-08T06:12:18.095Z,4.60
2022-12-08T06:17:19.834Z,4.77
2022-12-08T06:22:21.834Z,4.81
2022-12-08T06:27:23.674Z,4.84
2022-12-08T06:32:27.588Z,4.78
2022-12-08T06:37:29.602Z,4.74
2022-12-08T06:42:49.598Z,4.26
2022-12-08T06:47:51.351Z,4.35
2022-12-08T06:53:00.994Z,4.40
2022-12-08T06:58:06.806Z,4.32
2022-12-08T07:03:09.886Z,4.58
2022-12-08T07:08:12.074Z,4.59
2022-12-08T07:13:14.788Z,4.67
2022-12-08T07:18:16.531Z,4.31
2022-12-08T07:23:18.384Z,4.17
2022-12-08T07:28:20.054Z,4.36
2022-12-08T07:33:21.916Z,4.42
2022-12-08T07:38:24.840Z,4.32
2022-12-08T07:43:26.679Z,3.98
2022-12-08T07:48:28.389Z,3.62
2022-12-08T07:53:30.609Z,3.73
2022-12-08T07:58:32.379Z,3.86
2022-12-08T08:03:35.216Z,3.73
2022-12-08T08:08:38.498Z,3.87
2022-12-08T08:13:40.432Z,3.96
2022-12-08T08:18:42.375Z,4.00
2022-12-08T08:23:44.333Z,4.05
2022-12-08T08:28:46.309Z,3.79
2022-12-08T08:33:49.629Z,4.13
2022-12-08T08:38:51.306Z,4.29
2022-12-08T08:43:55.008Z,4.45
2022-12-08T08:48:56.755Z,4.27
2022-12-08T08:53:58.775Z,4.47
2022-12-08T08:59:00.549Z,4.38
2022-12-08T09:04:02.280Z,4.07
2022-12-08T09:09:04.345Z,3.85
2022-12-08T09:14:06.663Z,3.89
2022-12-08T09:19:09.944Z,3.87
2022-12-08T09:24:15.745Z,4.12
2022-12-08T09:29:17.814Z,4.14
2022-12-08T09:34:19.943Z,3.84
2022-12-08T09:39:21.750Z,3.78
2022-12-08T09:44:23.738Z,3.67
2022-12-08T09:49:40.268Z,3.52
2022-12-08T09:54:42.052Z,3.50
2022-12-08T09:59:48.783Z,3.44
2022-12-08T10:04:51.413Z,3.68
2022-12-08T10:10:02.575Z,3.57
2022-12-08T10:15:30.800Z,3.42
2022-12-08T10:20:42.162Z,3.51
2022-12-08T10:25:49.766Z,3.49
2022-12-08T10:30:52.270Z,3.38
2022-12-08T10:35:58.483Z,3.41
2022-12-08T10:41:11.307Z,3.38
2022-12-08T10:46:28.542Z,3.45
2022-12-08T10:51:37.649Z,3.40
2022-12-08T10:56:39.573Z,3.47
2022-12-08T11:01:42.876Z,3.58
2022-12-08T11:06:45.762Z,3.50
2022-12-08T11:11:51.471Z,3.64
2022-12-08T11:17:09.511Z,3.66
2022-12-08T11:22:31.044Z,3.77
2022-12-08T11:27:34.203Z,3.70
2022-12-08T11:32:36.340Z,3.69
2022-12-08T11:37:41.811Z,3.84
2022-12-08T11:43:14.664Z,3.79
2022-12-08T11:48:20.325Z,3.70
2022-12-08T11:53:48.960Z,3.84
2022-12-08T11:58:58.584Z,4.05
2022-12-08T12:04:22.309Z,4.08
2022-12-08T12:10:21.220Z,4.23
2022-12-08T12:15:51.364Z,4.25
2022-12-08T12:21:16.986Z,4.30
2022-12-08T12:26:24.972Z,4.37
2022-12-08T12:31:31.476Z,4.49
2022-12-08T12:36:46.545Z,4.26
2022-12-08T12:41:55.174Z,3.75
2022-12-08T12:47:01.446Z,3.73
2022-12-08T12:52:04.412Z,3.74
2022-12-08T12:57:09.277Z,3.73
2022-12-08T13:02:23.290Z,3.81
2022-12-08T13:07:32.391Z,4.21
2022-12-08T13:12:34.107Z,4.39
2022-12-08T13:17:38.459Z,4.48
2022-12-08T13:22:50.147Z,4.48
2022-12-08T13:27:53.866Z,4.19
2022-12-08T13:38:26.440Z,4.08
2022-12-08T13:44:50.434Z,3.90
2022-12-08T14:00:21.203Z,3.52
2022-12-08T14:05:47.733Z,3.19
2022-12-08T14:10:57.472Z,3.09
2022-12-08T14:15:59.332Z,3.11
2022-12-08T14:21:20.753Z,2.98
2022-12-08T14:26:23.171Z,3.01
2022-12-08T14:31:25.950Z,2.96
2022-12-08T14:36:29.113Z,2.95
2022-12-08T14:41:32.589Z,2.96
2022-12-08T14:46:34.352Z,2.83
2022-12-08T14:51:36.925Z,2.86
2022-12-08T14:56:51.766Z,3.06
2022-12-08T15:02:09.261Z,2.84
2022-12-08T15:07:22.655Z,3.10
2022-12-08T15:12:33.315Z,3.37
2022-12-08T15:17:43.216Z,3.55
2022-12-08T15:22:44.906Z,3.26
2022-12-08T15:27:50.619Z,3.17
2022-12-08T15:32:54.218Z,3.11
2022-12-08T15:37:55.958Z,3.14
2022-12-08T15:42:57.634Z,3.18
2022-12-08T15:47:59.472Z,3.11
2022-12-08T15:53:01.622Z,3.29
2022-12-08T15:58:51.632Z,3.35
2022-12-08T16:09:06.133Z,3.54
2022-12-08T16:15:01.963Z,3.45
2022-12-08T16:19:35.846Z,3.25
2022-12-08T16:24:37.636Z,2.94
2022-12-08T16:29:39.463Z,3.03
2022-12-08T16:34:41.919Z,3.00
2022-12-08T16:39:46.126Z,3.13
2022-12-08T16:44:48.863Z,2.96
2022-12-08T16:49:50.767Z,2.96
2022-12-08T16:54:52.573Z,3.12
2022-12-08T16:59:54.431Z,3.13
2022-12-08T17:04:56.326Z,2.98
2022-12-08T17:09:58.841Z,2.99
2022-12-08T17:15:03.122Z,3.14
2022-12-08T17:20:12.698Z,3.25
2022-12-08T17:25:15.389Z,3.34
2022-12-08T17:30:19.035Z,3.22
2022-12-08T17:35:21.689Z,3.30
2022-12-08T17:40:27.997Z,3.24
2022-12-08T17:45:30.273Z,3.22
2022-12-08T17:50:32.186Z,3.28
2022-12-08T17:55:34.619Z,3.24
2022-12-08T18:00:36.841Z,3.30
2022-12-08T18:05:38.630Z,3.39
2022-12-08T18:10:40.410Z,3.38
2022-12-08T18:15:42.049Z,3.34
2022-12-08T18:20:43.804Z,3.20
2022-12-08T18:25:45.853Z,3.22
2022-12-08T18:30:47.724Z,3.27
2022-12-08T18:35:49.541Z,3.26
2022-12-08T18:40:51.215Z,3.23
2022-12-08T18:46:01.629Z,3.25
2022-12-08T18:51:04.338Z,3.21
2022-12-08T18:56:07.088Z,3.25
2022-12-08T19:01:13.879Z,3.27
2022-12-08T19:06:41.081Z,3.33
2022-12-08T19:11:43.567Z,3.29
2022-12-08T19:16:45.278Z,3.32
2022-12-08T19:21:47.000Z,3.34
2022-12-08T19:26:48.863Z,3.30
2022-12-08T19:31:50.774Z,3.20
2022-12-08T19:36:52.558Z,3.20
2022-12-08T19:42:12.880Z,3.29
2022-12-08T19:47:15.172Z,3.24
2022-12-08T19:52:17.407Z,3.15
2022-12-08T19:57:20.493Z,3.25
2022-12-08T20:02:22.527Z,3.16
2022-12-08T20:07:24.338Z,3.02
2022-12-08T20:12:36.691Z,3.07
2022-12-08T20:17:38.739Z,3.03
2022-12-08T20:22:40.546Z,2.98
2022-12-08T20:27:42.316Z,2.96
2022-12-08T20:32:44.744Z,2.97
2022-12-08T20:37:46.542Z,2.95
2022-12-08T20:42:52.283Z,3.01
2022-12-08T20:47:55.451Z,3.03
2022-12-08T20:52:57.168Z,2.98
2022-12-08T20:57:59.126Z,3.01
2022-12-08T21:03:01.232Z,3.03
2022-12-08T21:08:03.126Z,2.88
2022-12-08T21:13:05.699Z,2.97
2022-12-08T21:18:07.643Z,2.94
2022-12-08T21:23:10.094Z,2.94
2022-12-08T21:28:12.703Z,2.81
2022-12-08T21:33:14.906Z,2.73
2022-12-08T21:38:20.096Z,2.77
2022-12-08T21:43:21.978Z,2.55
2022-12-08T21:48:24.390Z,2.39
2022-12-08T21:53:26.582Z,2.41
2022-12-08T21:58:31.986Z,2.43
2022-12-08T22:03:34.787Z,2.36
2022-12-08T22:08:37.360Z,2.50
2022-12-08T22:13:41.662Z,2.31
2022-12-08T22:18:46.091Z,2.06
2022-12-08T22:23:51.219Z,2.05
2022-12-08T22:28:54.316Z,1.89
2022-12-08T22:33:56.260Z,1.91
2022-12-08T22:38:58.045Z,1.97
2022-12-08T22:43:59.772Z,2.17
2022-12-08T22:49:01.699Z,2.19
2022-12-08T22:54:04.418Z,1.93
2022-12-08T22:59:06.661Z,1.71
2022-12-08T23:04:17.370Z,1.73
2022-12-08T23:09:20.117Z,1.53
2022-12-08T23:14:22.250Z,1.60
2022-12-08T23:19:23.975Z,1.76
2022-12-08T23:24:25.593Z,1.77
2022-12-08T23:29:27.476Z,1.53
2022-12-08T23:34:29.192Z,1.75
2022-12-08T23:39:32.494Z,1.70
2022-12-08T23:44:34.961Z,1.66
2022-12-08T23:49:37.155Z,1.80
2022-12-08T23:54:39.612Z,1.74
2022-12-08T23:59:41.799Z,1.89
